Time;durP1;ratioP1;P1;durP2;ratioP2;P2;SDS_P1;SDS_P2;PMS_P1;PMS_P2;Temp;Humidity;BMP_temperature;BMP_pressure;BME280_temperature;BME280_humidity;BME280_pressure;Samples;Min_cycle;Max_cycle;Signal;HPM_P1;HPM_P2
2022/11/21 05:17:28;;;;;;;175.25;35.13;;;;;;;-2.23;100.00;99611.09;5557108;32;186985;-88
2022/11/21 05:20:32;;;;;;;189.87;37.78;;;;;;;-2.29;100.00;99608.56;5551943;32;34495;-89
2022/11/21 05:23:38;;;;;;;154.35;36.17;;;;;;;-2.22;100.00;99614.59;5554692;32;34100;-88
2022/11/21 05:26:41;;;;;;;191.98;34.42;;;;;;;-2.17;100.00;99602.38;5542382;32;32435;-88
2022/11/21 05:29:43;;;;;;;86.80;30.45;;;;;;;-2.11;100.00;99602.31;5543282;32;33544;-88
2022/11/21 05:32:46;;;;;;;101.30;32.95;;;;;;;-1.96;100.00;99606.50;5544062;32;35230;-88
2022/11/21 05:35:49;;;;;;;224.12;36.03;;;;;;;-1.96;100.00;99603.91;5543306;32;34042;-89
2022/11/21 05:38:52;;;;;;;115.35;33.83;;;;;;;-1.98;100.00;99600.47;5542885;32;33918;-88
2022/11/21 05:41:54;;;;;;;110.53;31.33;;;;;;;-1.92;100.00;99608.19;5543037;32;34025;-88
2022/11/21 05:45:05;;;;;;;138.45;32.35;;;;;;;-1.92;100.00;99596.94;5543157;32;33503;-88
2022/11/21 05:48:08;;;;;;;79.25;30.25;;;;;;;-1.87;100.00;99587.34;5542051;32;33251;-89
2022/11/21 05:51:11;;;;;;;152.95;32.92;;;;;;;-1.97;100.00;99599.59;5565636;32;33805;-88
2022/11/21 05:54:16;;;;;;;88.55;29.85;;;;;;;-1.98;100.00;99597.87;5563426;32;34389;-88
2022/11/21 05:57:19;;;;;;;74.68;28.42;;;;;;;-1.93;100.00;99595.22;5563236;32;34077;-88
2022/11/21 06:00:21;;;;;;;114.60;30.62;;;;;;;-1.88;100.00;99601.22;5564634;32;34041;-89
2022/11/21 06:03:26;;;;;;;64.68;27.73;;;;;;;-1.95;100.00;99596.97;5564507;32;34016;-88
2022/11/21 06:06:29;;;;;;;76.07;29.95;;;;;;;-1.90;100.00;99597.78;5562945;32;34249;-88
2022/11/21 06:09:31;;;;;;;82.55;29.67;;;;;;;-1.97;100.00;99588.34;5567359;32;33526;-88
2022/11/21 06:12:34;;;;;;;69.32;29.27;;;;;;;-1.94;100.00;99604.78;5572088;32;33262;-89
2022/11/21 06:15:37;;;;;;;75.43;29.27;;;;;;;-1.93;100.00;99603.00;5574560;32;35645;-89
2022/11/21 06:18:42;;;;;;;72.07;30.20;;;;;;;-1.94;100.00;99593.50;5573910;32;33824;-89
2022/11/21 06:21:44;;;;;;;71.30;29.50;;;;;;;-1.79;100.00;99595.94;5565284;32;34587;-87
2022/11/21 06:24:47;;;;;;;70.43;29.70;;;;;;;-1.78;100.00;99596.78;5591455;31;34205;-89
2022/11/21 06:27:49;;;;;;;78.95;29.10;;;;;;;-1.91;100.00;99609.06;5585926;32;33763;-88
2022/11/21 06:30:52;;;;;;;151.68;32.50;;;;;;;-1.90;100.00;99606.44;5547933;32;33621;-88
2022/11/21 06:33:57;;;;;;;116.82;31.58;;;;;;;-1.87;100.00;99615.94;5533157;32;34778;-88
2022/11/21 06:37:00;;;;;;;119.15;31.17;;;;;;;-1.88;100.00;99621.19;5533768;32;33674;-88
2022/11/21 06:40:03;;;;;;;128.20;32.13;;;;;;;-1.81;100.00;99620.22;5536442;32;33927;-87
2022/11/21 06:43:05;;;;;;;146.45;32.47;;;;;;;-1.78;100.00;99622.78;5551404;32;34645;-88
2022/11/21 06:46:08;;;;;;;123.55;31.10;;;;;;;-1.78;100.00;99615.84;5552198;32;33864;-88
2022/11/21 06:49:11;;;;;;;115.95;30.37;;;;;;;-1.98;100.00;99625.59;5550163;32;32209;-88
2022/11/21 06:52:14;;;;;;;78.32;31.10;;;;;;;-2.03;100.00;99631.72;5524613;32;33798;-88
2022/11/21 06:55:16;;;;;;;73.15;31.23;;;;;;;-2.03;100.00;99631.72;5531939;32;34370;-88
2022/11/21 06:58:19;;;;;;;74.47;31.87;;;;;;;-1.95;100.00;99635.97;5539519;32;34492;-88
2022/11/21 07:01:22;;;;;;;92.65;32.55;;;;;;;-1.79;100.00;99645.34;5527538;32;33048;-88
2022/11/21 07:04:25;;;;;;;92.22;33.65;;;;;;;-1.54;100.00;99650.28;5560107;32;34682;-89
2022/11/21 07:07:28;;;;;;;89.55;32.85;;;;;;;-1.42;100.00;99649.25;5552920;32;34088;-88
2022/11/21 07:10:31;;;;;;;93.93;34.03;;;;;;;-1.29;100.00;99643.87;5543926;32;33808;-89
2022/11/21 07:13:34;;;;;;;88.70;32.58;;;;;;;-1.25;100.00;99650.78;5524128;32;32804;-88
2022/11/21 07:16:37;;;;;;;82.03;32.00;;;;;;;-1.19;100.00;99644.63;5537156;32;34069;-89
2022/11/21 07:19:40;;;;;;;90.68;30.90;;;;;;;-1.07;100.00;99648.84;5516821;32;34168;-89
2022/11/21 07:22:43;;;;;;;137.37;32.22;;;;;;;-0.93;100.00;99648.63;5520694;32;33141;-88
2022/11/21 07:25:45;;;;;;;171.45;34.97;;;;;;;-0.92;100.00;99651.22;5544885;32;33843;-89
2022/11/21 07:28:48;;;;;;;231.05;38.40;;;;;;;-0.88;100.00;99652.03;5540547;32;34224;-92
2022/11/21 07:31:51;;;;;;;87.62;32.03;;;;;;;-0.86;100.00;99645.91;5536866;32;34666;-93
2022/11/21 07:34:54;;;;;;;162.45;31.73;;;;;;;-0.80;100.00;99649.31;5542071;32;33933;-93
2022/11/21 07:37:57;;;;;;;117.93;31.83;;;;;;;-0.76;100.00;99641.41;5544018;32;35056;-94
2022/11/21 07:40:59;;;;;;;105.93;30.60;;;;;;;-0.96;100.00;99653.00;5537508;32;34213;-90
2022/11/21 07:44:02;;;;;;;93.05;31.20;;;;;;;-0.86;100.00;99650.28;5544018;32;33888;-90
2022/11/21 07:47:05;;;;;;;78.75;26.80;;;;;;;-0.79;100.00;99651.03;5543198;32;33809;-90
2022/11/21 07:50:10;;;;;;;60.05;24.83;;;;;;;-0.78;100.00;99653.62;5547271;32;33902;-89
2022/11/21 07:53:13;;;;;;;58.87;24.75;;;;;;;-0.73;100.00;99656.16;5549039;32;33959;-89
2022/11/21 07:56:15;;;;;;;56.50;24.30;;;;;;;-0.91;100.00;99662.50;5533227;32;33806;-89
2022/11/21 07:59:19;;;;;;;57.55;24.25;;;;;;;-0.95;100.00;99661.69;5535008;32;35233;-89
2022/11/21 08:02:27;;;;;;;61.22;24.75;;;;;;;-1.07;100.00;99672.25;5535341;32;33118;-89
2022/11/21 08:05:30;;;;;;;66.35;25.65;;;;;;;-1.00;100.00;99672.13;5521314;32;32995;-89
2022/11/21 08:08:32;;;;;;;69.15;26.20;;;;;;;-0.90;100.00;99667.66;5531209;32;33941;-89
2022/11/21 08:11:36;;;;;;;57.70;24.37;;;;;;;-0.84;100.00;99672.78;5541812;32;34434;-88
2022/11/21 08:14:39;;;;;;;55.28;23.10;;;;;;;-0.53;100.00;99683.63;5532303;32;33691;-89
2022/11/21 08:17:43;;;;;;;58.80;24.27;;;;;;;-0.45;100.00;99679.19;5526173;32;33091;-90
2022/11/21 08:20:45;;;;;;;58.72;23.12;;;;;;;-0.24;100.00;99671.91;5536371;32;32678;-89
2022/11/21 08:23:48;;;;;;;54.58;23.38;;;;;;;-0.06;100.00;99670.72;5539725;32;34326;-90
2022/11/21 08:26:51;;;;;;;58.28;25.12;;;;;;;0.16;100.00;99675.56;5543131;32;34251;-89
2022/11/21 08:29:54;;;;;;;64.72;24.83;;;;;;;0.36;100.00;99672.59;5532611;32;33001;-90
2022/11/21 08:32:57;;;;;;;68.72;25.55;;;;;;;0.15;100.00;99666.88;5545490;32;34293;-89
2022/11/21 08:36:06;;;;;;;51.63;22.33;;;;;;;0.33;100.00;99680.47;5545426;32;33808;-89
2022/11/21 08:39:09;;;;;;;50.35;22.00;;;;;;;0.34;100.00;99682.19;5520053;32;32250;-90
2022/11/21 08:42:12;;;;;;;43.40;22.02;;;;;;;0.20;100.00;99683.31;5541284;32;35071;-90
2022/11/21 08:45:14;;;;;;;49.05;21.67;;;;;;;0.21;100.00;99695.44;5544686;32;33865;-89
2022/11/21 08:48:17;;;;;;;45.10;20.98;;;;;;;0.05;100.00;99697.47;5565423;31;34256;-90
2022/11/21 08:51:21;;;;;;;42.13;20.65;;;;;;;0.04;100.00;99705.34;5560572;32;34201;-90
2022/11/21 08:54:24;;;;;;;47.85;21.55;;;;;;;0.30;100.00;99696.19;5554251;32;35347;-90
2022/11/21 08:57:26;;;;;;;45.38;20.98;;;;;;;0.28;100.00;99695.34;5548514;32;33755;-89
2022/11/21 09:00:29;;;;;;;42.95;21.27;;;;;;;0.33;100.00;99696.13;5554663;32;33813;-90
2022/11/21 09:03:32;;;;;;;43.35;20.92;;;;;;;0.63;100.00;99699.03;5550924;32;32449;-89
2022/11/21 09:06:35;;;;;;;41.45;20.55;;;;;;;0.58;100.00;99691.31;5563963;32;33928;-89
2022/11/21 09:09:38;;;;;;;45.38;23.00;;;;;;;0.94;100.00;99698.41;5561450;32;35019;-89
2022/11/21 09:12:40;;;;;;;46.25;22.15;;;;;;;0.67;100.00;99698.09;5544063;32;34382;-89
2022/11/21 09:19:05;;;;;;;43.65;21.70;;;;;;;0.82;100.00;99683.00;5568070;32;34206;-90
2022/11/21 09:22:07;;;;;;;43.75;22.17;;;;;;;0.98;100.00;99688.75;5557569;32;34687;-90
2022/11/21 09:25:10;;;;;;;45.50;21.27;;;;;;;1.18;100.00;99693.56;5554069;32;33910;-90
2022/11/21 09:28:13;;;;;;;51.17;22.42;;;;;;;1.08;100.00;99692.91;5554354;32;33905;-88
2022/11/21 09:31:16;;;;;;;44.30;22.30;;;;;;;0.90;100.00;99684.56;5549058;32;31629;-89
2022/11/21 09:34:19;;;;;;;48.90;21.98;;;;;;;1.17;100.00;99679.63;5562628;32;34110;-90
2022/11/21 09:37:22;;;;;;;65.75;28.50;;;;;;;1.46;100.00;99685.12;5539265;32;32888;-90
2022/11/21 09:40:25;;;;;;;63.90;28.05;;;;;;;1.73;100.00;99683.59;5544815;32;33660;-90
2022/11/21 09:43:54;;;;;;;63.70;28.70;;;;;;;1.69;100.00;99692.41;5549806;32;32663;-90
2022/11/21 09:47:11;;;;;;;72.50;30.30;;;;;;;1.71;100.00;99692.38;5543948;32;34424;-90
2022/11/21 09:50:14;;;;;;;50.35;24.65;;;;;;;1.64;100.00;99704.72;5561385;32;34049;-90
2022/11/21 09:53:26;;;;;;;58.10;26.00;;;;;;;1.45;100.00;99694.69;5565434;32;33855;-90
2022/11/21 09:56:32;;;;;;;47.75;22.87;;;;;;;1.54;100.00;99701.47;5546081;32;33267;-90
2022/11/21 09:59:37;;;;;;;53.40;25.00;;;;;;;1.57;100.00;99695.31;5548594;32;34112;-90
2022/11/21 10:02:40;;;;;;;49.45;23.50;;;;;;;1.89;100.00;99693.66;5558641;32;34492;-90
2022/11/21 10:05:48;;;;;;;45.72;21.85;;;;;;;2.11;100.00;99693.12;5574388;32;33766;-91
2022/11/21 10:08:58;;;;;;;50.75;25.92;;;;;;;2.35;100.00;99689.00;5572344;32;33790;-90
2022/11/21 10:12:35;;;;;;;53.08;25.33;;;;;;;1.94;100.00;99683.97;5545780;32;34129;-90
2022/11/21 10:15:57;;;;;;;46.63;22.52;;;;;;;1.74;100.00;99692.28;5530644;32;33809;-90
2022/11/21 10:19:14;;;;;;;46.60;24.63;;;;;;;1.71;100.00;99677.53;5552244;32;33675;-90
2022/11/21 10:22:22;;;;;;;43.03;22.50;;;;;;;1.74;100.00;99673.97;5551896;32;35154;-92
2022/11/21 10:25:30;;;;;;;45.75;21.52;;;;;;;1.87;100.00;99669.31;5541185;32;34002;-89
2022/11/21 10:32:08;;;;;;;44.95;22.83;;;;;;;1.78;100.00;99664.31;5517141;32;32220;-88
2022/11/21 10:35:18;;;;;;;38.65;20.23;;;;;;;2.88;100.00;99657.87;5488739;32;33001;-88
2022/11/21 10:38:27;;;;;;;42.35;21.70;;;;;;;2.94;100.00;99657.69;5486562;32;32465;-87
2022/11/21 10:41:45;;;;;;;50.47;23.40;;;;;;;3.03;100.00;99646.94;5489376;32;34123;-87
2022/11/21 10:48:08;;;;;;;41.20;21.40;;;;;;;2.88;100.00;99639.53;5506073;32;34302;-87
2022/11/21 10:51:11;;;;;;;42.83;21.77;;;;;;;2.87;100.00;99645.69;5516784;32;35189;-89
2022/11/21 10:54:35;;;;;;;47.05;22.45;;;;;;;3.01;100.00;99633.03;5507114;32;32909;-88
2022/11/21 10:57:49;;;;;;;44.95;22.50;;;;;;;3.00;100.00;99633.94;5504052;32;36283;-86
2022/11/21 11:00:56;;;;;;;39.70;20.90;;;;;;;2.74;100.00;99632.94;5505445;32;33864;-87
2022/11/21 11:04:08;;;;;;;42.25;22.17;;;;;;;2.72;100.00;99628.66;5501628;32;33225;-86
2022/11/21 11:07:31;;;;;;;51.05;23.70;;;;;;;2.85;100.00;99629.16;5511515;32;35081;-87
2022/11/21 11:10:45;;;;;;;47.78;24.58;;;;;;;2.72;100.00;99632.16;5507202;32;34008;-86
2022/11/21 11:13:57;;;;;;;51.17;25.05;;;;;;;2.66;100.00;99632.31;5511781;32;33520;-86
2022/11/21 11:17:00;;;;;;;58.13;26.52;;;;;;;2.74;100.00;99624.22;5505460;32;34089;-86
2022/11/21 11:20:42;;;;;;;55.60;26.85;;;;;;;2.81;100.00;99629.25;5506061;32;35011;-86
2022/11/21 11:23:49;;;;;;;51.45;25.40;;;;;;;2.80;100.00;99614.44;5511743;32;33978;-87
2022/11/21 11:26:59;;;;;;;49.13;26.70;;;;;;;3.03;100.00;99618.13;5515088;32;33925;-86
2022/11/21 11:30:06;;;;;;;55.63;27.62;;;;;;;2.89;100.00;99617.66;5498141;32;33373;-86
2022/11/21 11:33:48;;;;;;;57.10;27.13;;;;;;;2.81;100.00;99607.41;5499097;32;33621;-87
2022/11/21 11:37:11;;;;;;;53.63;26.33;;;;;;;2.91;100.00;99608.03;5503300;32;34036;-88
2022/11/21 11:40:19;;;;;;;54.13;26.30;;;;;;;2.82;100.00;99601.28;5503755;32;34071;-88
2022/11/21 11:47:30;;;;;;;48.45;24.80;;;;;;;3.16;100.00;99587.13;5498817;32;33894;-87
2022/11/21 11:50:47;;;;;;;52.33;25.55;;;;;;;3.43;100.00;99579.31;5508988;32;34049;-88
2022/11/21 11:53:56;;;;;;;51.67;25.75;;;;;;;4.03;100.00;99578.16;5514234;32;34151;-88
2022/11/21 11:57:03;;;;;;;58.78;26.95;;;;;;;3.92;100.00;99573.25;5497867;32;34154;-88
2022/11/21 12:00:09;;;;;;;56.05;27.13;;;;;;;4.00;100.00;99568.63;5512933;32;35003;-87
2022/11/21 12:03:18;;;;;;;50.22;25.48;;;;;;;3.86;100.00;99574.34;5496637;32;32509;-87
2022/11/21 12:06:32;;;;;;;58.08;26.70;;;;;;;3.71;100.00;99560.00;5497360;32;33855;-87
2022/11/21 12:10:05;;;;;;;53.30;26.30;;;;;;;3.87;100.00;99564.72;5498389;32;34437;-91
2022/11/21 12:13:17;;;;;;;53.05;26.02;;;;;;;4.15;100.00;99556.72;5506390;32;33939;-87
2022/11/21 12:16:24;;;;;;;54.42;28.35;;;;;;;4.34;100.00;99547.31;5508079;32;34098;-87
2022/11/21 12:19:30;;;;;;;60.47;28.50;;;;;;;4.64;100.00;99545.31;5494450;32;33712;-87
2022/11/21 12:22:32;;;;;;;56.63;27.95;;;;;;;4.73;100.00;99538.84;5495207;32;34591;-87
2022/11/21 12:25:42;;;;;;;52.92;27.67;;;;;;;4.57;100.00;99533.28;5507422;32;33596;-88
2022/11/21 12:29:00;;;;;;;53.42;27.98;;;;;;;4.48;100.00;99534.50;5497375;32;34200;-87
2022/11/21 12:32:21;;;;;;;54.78;27.60;;;;;;;4.48;100.00;99526.63;5494424;32;33822;-87
2022/11/21 12:35:43;;;;;;;53.40;27.73;;;;;;;4.57;100.00;99535.91;5497476;32;33945;-87
2022/11/21 12:39:08;;;;;;;53.42;26.77;;;;;;;4.52;100.00;99527.38;5483454;32;32544;-87
2022/11/21 12:46:13;;;;;;;54.00;27.42;;;;;;;4.83;100.00;99519.13;5490219;32;34563;-91
2022/11/21 12:56:50;;;;;;;;;;;;;;;5.58;100.00;99515.25;5492001;32;33854;-86
2022/11/21 13:00:04;;;;;;;53.85;26.77;;;;;;;5.68;100.00;99507.81;5506680;32;34027;-85
2022/11/21 13:03:44;;;;;;;53.55;26.90;;;;;;;5.83;100.00;99503.66;5488442;32;32618;-86
2022/11/21 13:06:48;;;;;;;45.30;26.52;;;;;;;5.91;100.00;99507.66;5487047;32;32786;-89
2022/11/21 13:09:55;;;;;;;52.97;27.23;;;;;;;5.97;100.00;99510.94;5505799;32;33574;-85
2022/11/21 13:13:15;;;;;;;54.53;26.58;;;;;;;5.65;100.00;99514.91;5512608;32;34018;-86
2022/11/21 13:16:38;;;;;;;56.27;26.07;;;;;;;5.51;100.00;99514.66;5492588;32;32736;-86
2022/11/21 13:19:50;;;;;;;53.78;26.75;;;;;;;5.43;100.00;99511.50;5494091;32;32442;-86
2022/11/21 13:22:55;;;;;;;47.72;27.27;;;;;;;5.33;100.00;99509.25;5481620;32;32515;-87
2022/11/21 13:25:58;;;;;;;54.15;27.85;;;;;;;5.31;100.00;99511.09;5475970;32;32464;-87
2022/11/21 13:29:11;;;;;;;49.45;26.73;;;;;;;5.35;100.00;99522.34;5507906;32;34607;-87
2022/11/21 13:32:42;;;;;;;55.38;26.25;;;;;;;5.28;100.00;99519.09;5495376;32;33102;-86
2022/11/21 13:35:50;;;;;;;58.17;29.33;;;;;;;5.22;100.00;99517.59;5483423;32;32340;-86
2022/11/21 13:38:53;;;;;;;53.30;26.10;;;;;;;5.23;100.00;99519.28;5505856;32;32525;-86
2022/11/21 13:45:49;;;;;;;50.88;23.12;;;;;;;5.46;100.00;99514.00;5517227;32;35160;-86
2022/11/21 13:48:59;;;;;;;41.28;21.15;;;;;;;5.32;100.00;99512.81;5496644;32;34115;-87
2022/11/21 13:52:24;;;;;;;38.67;21.12;;;;;;;5.26;100.00;99511.28;5516171;32;34456;-87
2022/11/21 13:55:55;;;;;;;35.92;20.90;;;;;;;5.34;100.00;99507.50;5487829;32;33129;-87
2022/11/21 13:59:08;;;;;;;34.97;19.47;;;;;;;5.17;100.00;99522.19;5480197;32;33394;-87
2022/11/21 14:02:19;;;;;;;32.47;17.95;;;;;;;5.10;100.00;99515.47;5493110;32;32596;-87
2022/11/21 14:05:50;;;;;;;31.33;16.65;;;;;;;5.16;100.00;99523.09;5500172;32;33948;-88
2022/11/21 14:09:11;;;;;;;32.25;17.77;;;;;;;5.11;100.00;99520.66;5501292;32;32957;-88
2022/11/21 14:12:21;;;;;;;30.92;17.33;;;;;;;4.99;100.00;99516.75;5514324;32;34325;-86
2022/11/21 14:15:51;;;;;;;25.95;15.20;;;;;;;4.98;100.00;99512.41;5509042;32;33793;-89
2022/11/21 14:18:55;;;;;;;30.15;16.05;;;;;;;4.94;100.00;99517.88;5508008;32;34112;-87
2022/11/21 14:21:59;;;;;;;27.37;15.68;;;;;;;4.72;100.00;99516.06;5502261;32;34238;-87
2022/11/21 14:25:07;;;;;;;30.15;15.43;;;;;;;4.69;100.00;99511.78;5482249;32;33316;-87
2022/11/21 14:28:22;;;;;;;26.33;14.93;;;;;;;4.54;100.00;99522.91;5502824;32;34372;-88
2022/11/21 14:31:25;;;;;;;23.98;15.02;;;;;;;4.44;100.00;99517.16;5487091;32;33521;-87
2022/11/21 14:34:31;;;;;;;22.08;13.57;;;;;;;4.38;100.00;99515.59;5492033;32;32546;-88
2022/11/21 14:37:38;;;;;;;25.40;14.75;;;;;;;4.26;100.00;99511.69;5482015;32;32704;-88
2022/11/21 14:40:41;;;;;;;23.60;14.57;;;;;;;4.15;100.00;99524.34;5494810;32;32455;-87
2022/11/21 14:43:44;;;;;;;24.65;14.60;;;;;;;4.11;100.00;99526.22;5491493;32;33102;-87
2022/11/21 14:46:47;;;;;;;24.50;14.30;;;;;;;4.05;100.00;99531.72;5505966;32;32602;-87
2022/11/21 14:49:53;;;;;;;22.90;13.25;;;;;;;3.98;100.00;99528.44;5486278;32;34636;-87
2022/11/21 14:52:59;;;;;;;28.52;13.45;;;;;;;3.95;100.00;99530.31;5508134;32;33800;-87
2022/11/21 14:56:02;;;;;;;23.62;14.07;;;;;;;3.81;100.00;99534.28;5502605;32;34213;-87
2022/11/21 14:59:14;;;;;;;24.12;14.13;;;;;;;3.73;100.00;99538.97;5505310;32;34096;-86
2022/11/21 15:02:18;;;;;;;20.08;13.50;;;;;;;3.66;100.00;99543.56;5505361;32;33063;-87
2022/11/21 15:05:28;;;;;;;22.60;12.88;;;;;;;3.67;100.00;99545.25;5504971;32;33792;-87
2022/11/21 15:08:54;;;;;;;22.58;13.32;;;;;;;3.61;100.00;99540.22;5493384;32;34189;-87
2022/11/21 15:12:25;;;;;;;22.27;13.07;;;;;;;3.65;100.00;99539.22;5492934;32;33973;-91
2022/11/21 15:15:37;;;;;;;26.80;13.38;;;;;;;3.73;100.00;99547.69;5493125;32;34241;-87
2022/11/21 15:18:41;;;;;;;22.30;12.60;;;;;;;3.64;100.00;99543.59;5484558;32;33140;-87
2022/11/21 15:21:44;;;;;;;19.98;12.90;;;;;;;3.77;100.00;99546.66;5496810;32;32537;-87
2022/11/21 15:24:47;;;;;;;24.50;12.93;;;;;;;3.68;100.00;99552.25;5502059;32;33855;-87
2022/11/21 15:28:05;;;;;;;21.80;12.75;;;;;;;3.70;100.00;99552.16;5496689;32;33838;-87
2022/11/21 15:31:20;;;;;;;21.87;12.88;;;;;;;3.76;100.00;99560.69;5486281;32;33567;-87
2022/11/21 15:34:27;;;;;;;28.05;12.85;;;;;;;3.75;100.00;99569.47;5492320;32;34305;-87
2022/11/21 15:37:37;;;;;;;21.60;12.60;;;;;;;3.82;100.00;99567.50;5478821;32;32420;-87
2022/11/21 15:40:53;;;;;;;18.45;11.88;;;;;;;3.70;100.00;99565.28;5491390;32;35272;-87
2022/11/21 15:44:20;;;;;;;22.05;13.13;;;;;;;3.74;100.00;99564.28;5491021;32;34638;-86
2022/11/21 15:47:22;;;;;;;28.17;12.00;;;;;;;3.90;100.00;99567.22;5477907;32;33682;-87
2022/11/21 15:50:25;;;;;;;22.10;12.77;;;;;;;3.86;100.00;99574.34;5492099;32;34549;-87
2022/11/21 15:53:28;;;;;;;19.12;12.13;;;;;;;3.76;100.00;99575.56;5493149;32;34115;-86
2022/11/21 15:56:31;;;;;;;20.05;11.77;;;;;;;3.84;100.00;99578.81;5478433;32;32838;-86
2022/11/21 15:59:34;;;;;;;19.33;11.38;;;;;;;3.87;100.00;99577.84;5477202;32;32625;-86
2022/11/21 16:02:36;;;;;;;20.98;12.23;;;;;;;4.03;100.00;99581.63;5493210;32;34304;-86
2022/11/21 16:05:39;;;;;;;22.98;12.98;;;;;;;4.20;100.00;99574.94;5477773;32;32357;-86
2022/11/21 16:08:42;;;;;;;18.00;12.10;;;;;;;4.09;100.00;99566.56;5494455;32;34457;-86
2022/11/21 16:11:45;;;;;;;20.05;11.30;;;;;;;4.26;100.00;99558.06;5493467;32;34296;-86
2022/11/21 16:14:48;;;;;;;19.95;12.13;;;;;;;4.01;100.00;99556.34;5479549;32;33508;-86
2022/11/21 16:17:51;;;;;;;21.95;12.80;;;;;;;3.84;100.00;99575.31;5492785;32;33660;-87
2022/11/21 16:21:03;;;;;;;19.75;12.43;;;;;;;3.68;100.00;99573.22;5493048;32;34260;-90
2022/11/21 16:24:06;;;;;;;23.90;12.77;;;;;;;3.72;100.00;99576.59;5492466;32;34850;-87
2022/11/21 16:27:09;;;;;;;20.58;12.65;;;;;;;3.68;100.00;99561.88;5477887;32;33340;-87
2022/11/21 16:30:12;;;;;;;23.70;12.35;;;;;;;3.71;100.00;99567.00;5497133;32;34139;-87
2022/11/21 16:33:14;;;;;;;19.37;12.32;;;;;;;3.66;100.00;99554.03;5493831;32;33884;-87
